Sensation — C6FM8 — position and weather

sailwx.info

Track history (hours):
 
Tides and Currents Weather Stations Pressure Air Temp Water Temp Dewpoint Dewpoint Depression Visibility Wind Speed Wind Dir Waves Ship Positions

Sensation

Last reported at 2020-Mar-31 07:19 UTC. Time now 2020-Apr-05 07:54 UTC.
Position N 25°09' W 079°48'.

Type: Passenger vessel. MMSI: 309697000.

Date/timePositionNaut miles runAvg speedWind from/ knotsBaromVisibWave heightAir tempDewpointWater temp
2020-Mar-31 07:19N 25°09' W 079°48'7 8.3
2020-Mar-31 06:30N 25°15' W 079°47'12 7.9
2020-Mar-31 05:00N 25°27' W 079°45'4 7.4
2020-Mar-31 04:30N 25°31' W 079°45'6 6.3
2020-Mar-31 03:30N 25°37' W 079°47'16 6.5
2020-Mar-31 01:00N 25°46' W 080°02'7 4.8
2020-Mar-30 23:30N 25°47' W 080°10'0 0.0
2020-Mar-30 21:30N 25°47' W 080°10'0 0.0
2020-Mar-30 21:00N 25°47' W 080°10'0 0.0
2020-Mar-30 17:30N 25°47' W 080°10'0 0.0
2020-Mar-30 16:30N 25°47' W 080°10'0 0.0
2020-Mar-30 14:30N 25°47' W 080°10'0 0.0
2020-Mar-30 14:00N 25°47' W 080°10'0 0.0
2020-Mar-30 11:51N 25°47' W 080°10'6 4.8
2020-Mar-30 10:30N 25°46' W 080°03'18 8.9
2020-Mar-30 08:30N 25°44' W 079°43'4 8.7
2020-Mar-30 08:00N 25°42' W 079°39'18 9.0
2020-Mar-30 06:00N 25°24' W 079°37'5 9.7
2020-Mar-30 05:29N 25°19' W 079°37'62 8.7
2020-Mar-29 22:26N 24°27' W 080°13'52 2.3
2020-Mar-28 23:49N 23°45' W 080°47'  
2020-Mar-25 05:30N 25°19' W 079°47'30 7.4
2020-Mar-25 01:30N 25°46' W 080°02'4 7.4
2020-Mar-25 01:00N 25°46' W 080°06'4 8.8
2020-Mar-25 00:31N 25°47' W 080°11'0 0.2
2020-Mar-24 22:59N 25°47' W 080°10'0 0.0
2020-Mar-24 21:29N 25°47' W 080°10'0 0.0
2020-Mar-24 19:59N 25°47' W 080°10'0 0.0
2020-Mar-24 19:29N 25°47' W 080°10'0 0.0
2020-Mar-24 18:59N 25°47' W 080°10'0 0.0
2020-Mar-24 17:29N 25°47' W 080°10'0 0.0
2020-Mar-24 16:59N 25°47' W 080°10'0 0.0
2020-Mar-24 15:29N 25°47' W 080°10'0 0.0
2020-Mar-24 13:59N 25°47' W 080°10'0 0.0
2020-Mar-24 13:29N 25°47' W 080°10'0 0.0
2020-Mar-24 12:59N 25°47' W 080°10'0 0.0
2020-Mar-24 09:59N 25°47' W 080°10'0 0.0
2020-Mar-24 08:29N 25°47' W 080°10'0 0.0
2020-Mar-24 07:59N 25°47' W 080°10'0 0.0
2020-Mar-24 07:29N 25°47' W 080°10'0 0.0
2020-Mar-24 05:29N 25°47' W 080°10'0 0.0
2020-Mar-24 04:29N 25°47' W 080°10'0 0.0
2020-Mar-24 01:29N 25°47' W 080°10'0 0.0
2020-Mar-24 00:29N 25°47' W 080°10'0 0.0
2020-Mar-23 23:26N 25°47' W 080°10'0 0.0
2020-Mar-23 20:59N 25°47' W 080°10'0 0.0
2020-Mar-23 19:29N 25°47' W 080°10'0 0.0
2020-Mar-23 13:29N 25°47' W 080°10'0 0.0
2020-Mar-23 12:59N 25°47' W 080°10'9 6.1
2020-Mar-23 11:30N 25°47' W 080°00'5 9.3
2020-Mar-23 11:00N 25°46' W 079°55'1510.1
2020-Mar-23 09:30N 25°41' W 079°40'1711.0
2020-Mar-23 08:00N 25°25' W 079°35'26 1.2
2020-Mar-22 11:00N 25°00' W 079°42'   100
Track history (hours):
 
Tides and Currents Weather Stations Pressure Air Temp Water Temp Dewpoint Dewpoint Depression Visibility Wind Speed Wind Dir Waves Ship Positions

Sensation

Last reported at 2020-Mar-31 07:19 UTC. Time now 2020-Apr-05 07:54 UTC.
Position N 25°09' W 079°48'.

Type: Passenger vessel. MMSI: 309697000.

Date/timePositionNaut miles runAvg speedWind from/ knotsBaromVisibWave heightAir tempDewpointWater temp
2020-Mar-31 07:19N 25°09' W 079°48'7 8.3
2020-Mar-31 06:30N 25°15' W 079°47'12 7.9
2020-Mar-31 05:00N 25°27' W 079°45'4 7.4
2020-Mar-31 04:30N 25°31' W 079°45'6 6.3
2020-Mar-31 03:30N 25°37' W 079°47'16 6.5
2020-Mar-31 01:00N 25°46' W 080°02'7 4.8
2020-Mar-30 23:30N 25°47' W 080°10'0 0.0
2020-Mar-30 21:30N 25°47' W 080°10'0 0.0
2020-Mar-30 21:00N 25°47' W 080°10'0 0.0
2020-Mar-30 17:30N 25°47' W 080°10'0 0.0
2020-Mar-30 16:30N 25°47' W 080°10'0 0.0
2020-Mar-30 14:30N 25°47' W 080°10'0 0.0
2020-Mar-30 14:00N 25°47' W 080°10'0 0.0
2020-Mar-30 11:51N 25°47' W 080°10'6 4.8
2020-Mar-30 10:30N 25°46' W 080°03'18 8.9
2020-Mar-30 08:30N 25°44' W 079°43'4 8.7
2020-Mar-30 08:00N 25°42' W 079°39'18 9.0
2020-Mar-30 06:00N 25°24' W 079°37'5 9.7
2020-Mar-30 05:29N 25°19' W 079°37'62 8.7
2020-Mar-29 22:26N 24°27' W 080°13'52 2.3
2020-Mar-28 23:49N 23°45' W 080°47'  
2020-Mar-25 05:30N 25°19' W 079°47'30 7.4
2020-Mar-25 01:30N 25°46' W 080°02'4 7.4
2020-Mar-25 01:00N 25°46' W 080°06'4 8.8
2020-Mar-25 00:31N 25°47' W 080°11'0 0.2
2020-Mar-24 22:59N 25°47' W 080°10'0 0.0
2020-Mar-24 21:29N 25°47' W 080°10'0 0.0
2020-Mar-24 19:59N 25°47' W 080°10'0 0.0
2020-Mar-24 19:29N 25°47' W 080°10'0 0.0
2020-Mar-24 18:59N 25°47' W 080°10'0 0.0
2020-Mar-24 17:29N 25°47' W 080°10'0 0.0
2020-Mar-24 16:59N 25°47' W 080°10'0 0.0
2020-Mar-24 15:29N 25°47' W 080°10'0 0.0
2020-Mar-24 13:59N 25°47' W 080°10'0 0.0
2020-Mar-24 13:29N 25°47' W 080°10'0 0.0
2020-Mar-24 12:59N 25°47' W 080°10'0 0.0
2020-Mar-24 09:59N 25°47' W 080°10'0 0.0
2020-Mar-24 08:29N 25°47' W 080°10'0 0.0
2020-Mar-24 07:59N 25°47' W 080°10'0 0.0
2020-Mar-24 07:29N 25°47' W 080°10'0 0.0
2020-Mar-24 05:29N 25°47' W 080°10'0 0.0
2020-Mar-24 04:29N 25°47' W 080°10'0 0.0
2020-Mar-24 01:29N 25°47' W 080°10'0 0.0
2020-Mar-24 00:29N 25°47' W 080°10'0 0.0
2020-Mar-23 23:26N 25°47' W 080°10'0 0.0
2020-Mar-23 20:59N 25°47' W 080°10'0 0.0
2020-Mar-23 19:29N 25°47' W 080°10'0 0.0
2020-Mar-23 13:29N 25°47' W 080°10'0 0.0
2020-Mar-23 12:59N 25°47' W 080°10'9 6.1
2020-Mar-23 11:30N 25°47' W 080°00'5 9.3
2020-Mar-23 11:00N 25°46' W 079°55'1510.1
2020-Mar-23 09:30N 25°41' W 079°40'1711.0
2020-Mar-23 08:00N 25°25' W 079°35'26 1.2
2020-Mar-22 11:00N 25°00' W 079°42'   100

Dump ship's entire track history